Time;durP1;ratioP1;P1;durP2;ratioP2;P2;SDS_P1;SDS_P2;PMS_P1;PMS_P2;Temp;Humidity;BMP_temperature;BMP_pressure;BME280_temperature;BME280_humidity;BME280_pressure;Samples;Min_cycle;Max_cycle;Signal;HPM_P1;HPM_P2
2023/12/03 00:05:35;;;;;;;;;;;;;;;;;;1048349;28;20378;-70
2023/12/03 00:06:06;;;;;;;2.08;1.20;;;;;;;;;;1048483;28;19912;-70
2023/12/03 00:06:36;;;;;;;2.20;1.10;;;;;;;;;;1044022;28;20029;-70
2023/12/03 00:07:07;;;;;;;1.33;0.93;;;;;;;;;;1044079;28;20155;-70
2023/12/03 00:07:37;;;;;;;1.45;1.35;;;;;;;;;;1043929;28;20128;-70
2023/12/03 00:08:08;;;;;;;9.07;1.70;;;;;;;;;;1044110;28;20067;-70
2023/12/03 00:08:38;;;;;;;1.30;1.27;;;;;;;;;;1043813;28;20033;-70
2023/12/03 00:09:09;;;;;;;1.85;1.75;;;;;;;;;;1044394;28;20021;-70
2023/12/03 00:09:39;;;;;;;2.00;1.90;;;;;;;;;;1044025;28;20456;-70
2023/12/03 00:10:10;;;;;;;2.03;1.88;;;;;;;;;;1043890;28;20029;-70
2023/12/03 00:10:41;;;;;;;0.68;0.68;;;;;;;;;;1043749;28;20033;-70
2023/12/03 00:11:11;;;;;;;1.88;1.67;;;;;;;;;;1043719;28;20021;-70
2023/12/03 00:11:42;;;;;;;1.10;1.02;;;;;;;;;;1043299;28;20037;-70
2023/12/03 00:12:12;;;;;;;1.98;1.25;;;;;;;;;;1043524;28;20380;-70
2023/12/03 00:12:44;;;;;;;7.22;3.55;;;;;;;;;;1043249;28;20049;-70
2023/12/03 00:13:14;;;;;;;2.03;1.92;;;;;;;;;;1043593;28;20021;-70
2023/12/03 00:13:44;;;;;;;0.82;0.82;;;;;;;;;;1043567;28;20057;-70
2023/12/03 00:14:15;;;;;;;1.45;1.35;;;;;;;;;;1043727;28;20024;-70
2023/12/03 00:14:45;;;;;;;1.55;0.98;;;;;;;;;;1043094;28;20047;-70
2023/12/03 00:15:16;;;;;;;9.38;2.38;;;;;;;;;;1043399;28;20116;-70
2023/12/03 00:15:46;;;;;;;1.08;1.08;;;;;;;;;;1043240;28;20039;-70
2023/12/03 00:16:17;;;;;;;2.53;1.98;;;;;;;;;;1043445;28;20025;-70
2023/12/03 00:16:47;;;;;;;0.88;0.88;;;;;;;;;;1043614;28;20028;-70
2023/12/03 00:17:18;;;;;;;6.60;2.20;;;;;;;;;;1043719;28;20022;-70
2023/12/03 00:17:49;;;;;;;2.78;2.58;;;;;;;;;;1043193;28;20029;-70
2023/12/03 00:18:20;;;;;;;2.35;2.17;;;;;;;;;;1043466;28;20021;-70
2023/12/03 00:18:50;;;;;;;10.52;3.35;;;;;;;;;;1043252;28;20060;-70
2023/12/03 00:19:20;;;;;;;1.92;1.13;;;;;;;;;;1043401;28;20021;-70
2023/12/03 00:19:51;;;;;;;2.15;2.05;;;;;;;;;;1043709;28;20030;-70
2023/12/03 00:20:21;;;;;;;0.57;0.57;;;;;;;;;;1043698;28;20017;-70
2023/12/03 00:20:52;;;;;;;3.63;2.47;;;;;;;;;;1043154;28;20087;-70
2023/12/03 00:21:22;;;;;;;3.45;1.23;;;;;;;;;;1043330;28;20021;-70
2023/12/03 00:21:53;;;;;;;8.68;3.20;;;;;;;;;;1043289;28;20046;-70
2023/12/03 00:22:23;;;;;;;1.15;1.05;;;;;;;;;;1043467;28;20420;-70
2023/12/03 00:22:53;;;;;;;4.10;2.22;;;;;;;;;;1043603;28;20029;-70
2023/12/03 00:23:24;;;;;;;1.27;1.20;;;;;;;;;;1043595;28;20458;-70
2023/12/03 00:23:54;;;;;;;2.63;2.42;;;;;;;;;;1043676;28;20120;-70
2023/12/03 00:24:25;;;;;;;1.15;1.10;;;;;;;;;;1043535;28;20066;-70
2023/12/03 00:24:55;;;;;;;1.58;1.48;;;;;;;;;;1043735;28;20124;-70
2023/12/03 00:25:26;;;;;;;4.13;2.75;;;;;;;;;;1043602;28;20477;-70
2023/12/03 00:25:56;;;;;;;0.40;0.40;;;;;;;;;;1043605;28;20447;-70
2023/12/03 00:26:27;;;;;;;1.38;1.27;;;;;;;;;;1043406;28;20035;-70
2023/12/03 00:26:58;;;;;;;4.30;1.27;;;;;;;;;;1043744;28;20021;-70
2023/12/03 00:27:28;;;;;;;1.08;1.05;;;;;;;;;;1043456;28;20025;-70
2023/12/03 00:27:59;;;;;;;2.42;1.10;;;;;;;;;;1043700;28;20393;-70
2023/12/03 00:28:29;;;;;;;1.55;1.45;;;;;;;;;;1043537;28;20499;-70
2023/12/03 00:29:00;;;;;;;5.15;1.95;;;;;;;;;;1043724;28;20266;-70
2023/12/03 00:29:30;;;;;;;2.05;0.88;;;;;;;;;;1043476;28;20040;-70
2023/12/03 00:30:00;;;;;;;0.45;0.45;;;;;;;;;;1043697;28;20028;-70
2023/12/03 00:30:31;;;;;;;2.42;1.83;;;;;;;;;;1043482;28;20025;-70
2023/12/03 00:31:01;;;;;;;0.98;0.98;;;;;;;;;;1043850;28;20031;-70
2023/12/03 00:31:32;;;;;;;0.52;0.52;;;;;;;;;;1043389;28;20400;-70
2023/12/03 00:32:03;;;;;;;5.47;1.80;;;;;;;;;;1043294;28;20106;-70
2023/12/03 00:32:33;;;;;;;2.10;1.35;;;;;;;;;;1043127;28;20064;-70
2023/12/03 00:33:04;;;;;;;2.97;2.67;;;;;;;;;;1043405;28;20032;-70
2023/12/03 00:33:34;;;;;;;0.82;0.82;;;;;;;;;;1043181;28;20043;-70
2023/12/03 00:34:05;;;;;;;2.92;1.95;;;;;;;;;;1043822;28;20028;-70
2023/12/03 00:34:35;;;;;;;4.80;1.60;;;;;;;;;;1043434;28;20373;-70
2023/12/03 00:35:06;;;;;;;2.47;1.38;;;;;;;;;;1043578;28;20130;-70
2023/12/03 00:35:36;;;;;;;3.20;0.82;;;;;;;;;;1043490;28;20039;-70
2023/12/03 00:36:07;;;;;;;1.98;1.88;;;;;;;;;;1043538;28;20034;-70
2023/12/03 00:36:37;;;;;;;2.50;1.27;;;;;;;;;;1043531;28;20078;-70
2023/12/03 00:37:08;;;;;;;3.00;1.55;;;;;;;;;;1043704;28;20029;-70
2023/12/03 00:37:38;;;;;;;3.70;2.97;;;;;;;;;;1043511;28;20472;-70
2023/12/03 00:38:09;;;;;;;2.65;2.15;;;;;;;;;;1043671;28;20522;-70
2023/12/03 00:38:39;;;;;;;4.97;1.45;;;;;;;;;;1043466;28;20036;-70
2023/12/03 00:39:10;;;;;;;4.22;2.05;;;;;;;;;;1043690;28;20477;-70
2023/12/03 00:39:40;;;;;;;3.08;2.88;;;;;;;;;;1043136;28;20033;-70
2023/12/03 00:40:11;;;;;;;2.53;2.33;;;;;;;;;;1043370;28;20116;-70
2023/12/03 00:40:41;;;;;;;1.73;1.63;;;;;;;;;;1043186;28;20094;-71
2023/12/03 00:41:12;;;;;;;1.27;1.13;;;;;;;;;;1043296;28;20021;-70
2023/12/03 00:41:42;;;;;;;1.38;1.33;;;;;;;;;;1047314;28;20033;-70
2023/12/03 00:42:13;;;;;;;3.70;2.10;;;;;;;;;;1043259;28;20021;-70
2023/12/03 00:42:43;;;;;;;3.13;2.92;;;;;;;;;;1043213;28;20029;-70
2023/12/03 00:43:14;;;;;;;4.38;3.25;;;;;;;;;;1043348;28;20028;-70
2023/12/03 00:43:44;;;;;;;0.50;0.50;;;;;;;;;;1043105;28;20029;-70
2023/12/03 00:44:15;;;;;;;1.52;1.38;;;;;;;;;;1043643;28;20029;-70
2023/12/03 00:44:46;;;;;;;2.63;1.70;;;;;;;;;;1043482;28;20048;-70
2023/12/03 00:45:16;;;;;;;6.40;2.90;;;;;;;;;;1043823;28;20037;-70
2023/12/03 00:45:47;;;;;;;0.93;0.93;;;;;;;;;;1043055;28;20033;-70
2023/12/03 00:46:20;;;;;;;2.30;1.13;;;;;;;;;;1043303;28;20025;-70
2023/12/03 00:46:50;;;;;;;1.08;1.05;;;;;;;;;;1043145;28;20055;-70
2023/12/03 00:47:21;;;;;;;9.43;1.60;;;;;;;;;;1043306;28;20029;-70
2023/12/03 00:47:51;;;;;;;2.65;2.33;;;;;;;;;;1043487;28;20025;-70
2023/12/03 00:48:22;;;;;;;9.32;5.18;;;;;;;;;;1043621;28;20021;-70
2023/12/03 00:48:52;;;;;;;5.78;2.20;;;;;;;;;;1043459;28;20492;-70
2023/12/03 00:49:23;;;;;;;3.95;2.33;;;;;;;;;;1043590;28;20036;-70
2023/12/03 00:49:53;;;;;;;2.78;2.45;;;;;;;;;;1043568;28;20041;-70
2023/12/03 00:50:24;;;;;;;4.13;2.35;;;;;;;;;;1043518;28;20056;-70
2023/12/03 00:50:54;;;;;;;10.73;4.65;;;;;;;;;;1043686;28;20031;-70
2023/12/03 00:51:24;;;;;;;11.05;6.50;;;;;;;;;;1043468;28;20017;-70
2023/12/03 00:51:56;;;;;;;35.05;14.48;;;;;;;;;;1043583;28;20079;-70
2023/12/03 00:52:26;;;;;;;28.90;12.02;;;;;;;;;;1043358;28;20037;-70
2023/12/03 00:52:57;;;;;;;19.40;7.65;;;;;;;;;;1043691;28;20025;-70
2023/12/03 00:53:27;;;;;;;7.32;5.50;;;;;;;;;;1043371;28;20021;-70
2023/12/03 00:53:57;;;;;;;9.73;4.45;;;;;;;;;;1043704;28;20033;-70
2023/12/03 00:54:28;;;;;;;4.63;3.95;;;;;;;;;;1043443;28;20033;-70
2023/12/03 00:54:58;;;;;;;13.90;3.67;;;;;;;;;;1043472;28;20838;-70
2023/12/03 00:55:29;;;;;;;2.00;1.88;;;;;;;;;;1043332;28;20025;-70
2023/12/03 00:55:59;;;;;;;31.70;9.75;;;;;;;;;;1043620;28;20057;-70
2023/12/03 00:56:29;;;;;;;8.93;6.72;;;;;;;;;;1044018;28;20029;-70
2023/12/03 00:57:00;;;;;;;9.45;3.63;;;;;;;;;;1043650;28;20033;-70
2023/12/03 00:57:30;;;;;;;12.55;2.50;;;;;;;;;;1043021;28;20029;-70
2023/12/03 00:58:01;;;;;;;4.28;3.85;;;;;;;;;;1043315;28;20400;-70
2023/12/03 00:58:31;;;;;;;15.82;4.90;;;;;;;;;;1043138;28;20103;-70
2023/12/03 00:59:02;;;;;;;12.35;5.00;;;;;;;;;;1043370;28;20033;-70
2023/12/03 00:59:32;;;;;;;4.80;3.05;;;;;;;;;;1043376;28;20025;-70
2023/12/03 01:00:03;;;;;;;2.50;1.88;;;;;;;;;;1043646;28;20032;-70
2023/12/03 01:00:34;;;;;;;13.43;4.65;;;;;;;;;;1043354;28;20032;-70
2023/12/03 01:01:04;;;;;;;10.35;4.93;;;;;;;;;;1043645;28;20481;-70
2023/12/03 01:01:35;;;;;;;6.70;3.97;;;;;;;;;;1043336;28;20472;-70
2023/12/03 01:02:05;;;;;;;10.27;3.78;;;;;;;;;;1043684;28;20025;-70
2023/12/03 01:02:36;;;;;;;24.67;8.32;;;;;;;;;;1043418;28;20061;-70
2023/12/03 01:03:06;;;;;;;17.42;8.40;;;;;;;;;;1043123;28;20028;-70
2023/12/03 01:03:36;;;;;;;21.92;11.18;;;;;;;;;;1042895;28;20025;-70
2023/12/03 01:04:07;;;;;;;2.38;2.17;;;;;;;;;;1043191;28;20064;-70
2023/12/03 01:04:37;;;;;;;4.72;3.35;;;;;;;;;;1043037;28;20053;-70
2023/12/03 01:05:08;;;;;;;5.93;3.33;;;;;;;;;;1043453;28;20051;-70
2023/12/03 01:05:38;;;;;;;5.03;2.30;;;;;;;;;;1043331;28;20111;-70
2023/12/03 01:06:09;;;;;;;7.90;4.03;;;;;;;;;;1043423;28;20035;-70
2023/12/03 01:06:40;;;;;;;21.45;9.40;;;;;;;;;;1039577;28;20052;-70
2023/12/03 01:07:10;;;;;;;6.35;4.63;;;;;;;;;;1040559;28;20032;-70
2023/12/03 01:07:40;;;;;;;29.88;3.78;;;;;;;;;;1040388;28;20030;-70
2023/12/03 01:08:11;;;;;;;3.88;3.20;;;;;;;;;;1040476;28;20025;-70
2023/12/03 01:08:41;;;;;;;11.50;3.28;;;;;;;;;;1040568;28;20468;-70
2023/12/03 01:09:12;;;;;;;20.85;5.10;;;;;;;;;;1040762;28;20022;-70
2023/12/03 01:09:42;;;;;;;10.00;3.65;;;;;;;;;;1040676;28;20103;-70
2023/12/03 01:10:13;;;;;;;4.18;2.35;;;;;;;;;;1040774;28;20087;-70
2023/12/03 01:10:43;;;;;;;2.80;2.58;;;;;;;;;;1040629;28;20080;-70
2023/12/03 01:11:14;;;;;;;4.80;3.13;;;;;;;;;;1040709;28;20094;-70
2023/12/03 01:11:44;;;;;;;2.78;1.85;;;;;;;;;;1040569;28;20029;-70
2023/12/03 01:12:14;;;;;;;6.88;3.88;;;;;;;;;;1040800;28;20082;-70
2023/12/03 01:12:45;;;;;;;4.82;2.70;;;;;;;;;;1040573;28;20044;-70
2023/12/03 01:13:15;;;;;;;7.57;5.00;;;;;;;;;;1040738;28;20026;-70
2023/12/03 01:13:46;;;;;;;8.48;2.50;;;;;;;;;;1040770;28;20035;-70
2023/12/03 01:14:16;;;;;;;3.78;1.77;;;;;;;;;;1040731;28;20491;-70
2023/12/03 01:14:47;;;;;;;4.28;3.80;;;;;;;;;;1040547;28;20123;-70
2023/12/03 01:15:17;;;;;;;3.65;2.35;;;;;;;;;;1040776;28;20029;-70
2023/12/03 01:15:48;;;;;;;5.47;2.20;;;;;;;;;;1040600;28;20032;-70
2023/12/03 01:16:18;;;;;;;2.00;1.75;;;;;;;;;;1040703;28;20018;-70
2023/12/03 01:16:48;;;;;;;4.38;1.85;;;;;;;;;;1040608;28;20025;-70
2023/12/03 01:17:19;;;;;;;7.45;2.78;;;;;;;;;;1040326;28;20025;-70
2023/12/03 01:17:49;;;;;;;2.72;2.55;;;;;;;;;;1040287;28;20029;-70
2023/12/03 01:18:20;;;;;;;7.45;3.80;;;;;;;;;;1040435;28;20029;-70
2023/12/03 01:18:50;;;;;;;2.20;1.80;;;;;;;;;;1040297;28;20029;-70
2023/12/03 01:19:21;;;;;;;3.22;2.92;;;;;;;;;;1040872;28;20067;-70
2023/12/03 01:19:51;;;;;;;1.75;1.65;;;;;;;;;;1040587;28;20029;-70
2023/12/03 01:20:22;;;;;;;1.98;1.80;;;;;;;;;;1040708;28;20069;-70
2023/12/03 01:20:52;;;;;;;1.58;1.48;;;;;;;;;;1040602;28;20029;-70
2023/12/03 01:21:22;;;;;;;4.35;2.80;;;;;;;;;;1040709;28;20029;-70
2023/12/03 01:21:53;;;;;;;1.30;1.20;;;;;;;;;;1040671;28;20033;-70
2023/12/03 01:22:24;;;;;;;1.58;1.48;;;;;;;;;;1040676;28;20080;-70
2023/12/03 01:22:54;;;;;;;2.25;1.85;;;;;;;;;;1040682;28;20021;-70
2023/12/03 01:23:24;;;;;;;0.70;0.70;;;;;;;;;;1040572;28;20025;-70
2023/12/03 01:23:55;;;;;;;2.67;2.45;;;;;;;;;;1040743;28;20029;-70
2023/12/03 01:24:25;;;;;;;3.17;2.53;;;;;;;;;;1040544;28;20120;-70
2023/12/03 01:24:56;;;;;;;0.57;0.57;;;;;;;;;;1040760;28;20055;-70
2023/12/03 01:25:27;;;;;;;0.43;0.43;;;;;;;;;;1040503;28;20034;-70
2023/12/03 01:25:57;;;;;;;12.18;3.67;;;;;;;;;;1040793;28;20500;-70
2023/12/03 01:26:27;;;;;;;1.48;1.33;;;;;;;;;;1040422;28;20033;-70
2023/12/03 01:26:58;;;;;;;3.78;3.22;;;;;;;;;;1040394;28;20120;-70
2023/12/03 01:27:28;;;;;;;3.72;2.15;;;;;;;;;;1040187;28;20059;-70
2023/12/03 01:27:59;;;;;;;2.35;2.15;;;;;;;;;;1040528;28;20059;-70
2023/12/03 01:28:29;;;;;;;2.63;2.35;;;;;;;;;;1040173;28;20032;-70
2023/12/03 01:29:00;;;;;;;3.83;2.28;;;;;;;;;;1040737;28;20480;-70
2023/12/03 01:29:30;;;;;;;5.22;3.30;;;;;;;;;;1040513;28;20513;-70
2023/12/03 01:30:00;;;;;;;6.40;3.25;;;;;;;;;;1040294;28;20093;-70
2023/12/03 01:30:31;;;;;;;1.50;1.45;;;;;;;;;;1040215;28;20021;-70
2023/12/03 01:31:02;;;;;;;1.50;1.20;;;;;;;;;;1040457;28;20033;-70
2023/12/03 01:31:32;;;;;;;6.10;3.45;;;;;;;;;;1040085;28;20122;-70
2023/12/03 01:32:03;;;;;;;6.65;5.32;;;;;;;;;;1040743;28;20029;-70
2023/12/03 01:32:33;;;;;;;2.83;2.35;;;;;;;;;;1040444;28;20017;-70
2023/12/03 01:33:03;;;;;;;1.40;1.30;;;;;;;;;;1040624;28;20037;-70
2023/12/03 01:33:34;;;;;;;1.60;1.50;;;;;;;;;;1040655;28;20056;-70
2023/12/03 01:34:05;;;;;;;3.38;2.15;;;;;;;;;;1040696;28;20036;-70
2023/12/03 01:34:35;;;;;;;3.05;2.35;;;;;;;;;;1040538;28;20040;-70
2023/12/03 01:35:06;;;;;;;0.65;0.47;;;;;;;;;;1040259;28;20072;-70
2023/12/03 01:35:36;;;;;;;1.70;1.33;;;;;;;;;;1040159;28;20030;-70
2023/12/03 01:36:08;;;;;;;7.63;2.38;;;;;;;;;;1040318;28;20475;-70
2023/12/03 01:36:38;;;;;;;5.85;2.70;;;;;;;;;;1040257;28;20041;-70
2023/12/03 01:37:10;;;;;;;0.57;0.57;;;;;;;;;;1040715;28;20028;-70
2023/12/03 01:37:40;;;;;;;3.08;1.40;;;;;;;;;;1040502;28;20440;-70
2023/12/03 01:38:11;;;;;;;1.45;1.35;;;;;;;;;;1040721;28;20024;-70
2023/12/03 01:38:41;;;;;;;2.90;2.10;;;;;;;;;;1040431;28;20036;-70
2023/12/03 01:39:12;;;;;;;0.40;0.30;;;;;;;;;;1040680;28;20029;-70
2023/12/03 01:39:43;;;;;;;5.10;3.88;;;;;;;;;;1040515;28;20075;-70
2023/12/03 01:40:13;;;;;;;3.47;1.73;;;;;;;;;;1040709;28;20025;-70
2023/12/03 01:40:53;;;;;;;2.38;2.17;;;;;;;;;;1040489;28;20084;-70
2023/12/03 01:41:23;;;;;;;0.90;0.90;;;;;;;;;;1040508;28;20116;-70
2023/12/03 01:41:54;;;;;;;1.63;1.52;;;;;;;;;;1040593;28;20392;-70
2023/12/03 01:42:24;;;;;;;1.00;1.00;;;;;;;;;;1040604;28;20507;-70
2023/12/03 01:42:55;;;;;;;0.98;0.85;;;;;;;;;;1040609;28;20469;-70
2023/12/03 01:43:25;;;;;;;6.40;3.83;;;;;;;;;;1040468;28;20032;-70
2023/12/03 01:43:56;;;;;;;7.63;3.97;;;;;;;;;;1040628;28;20029;-70
2023/12/03 01:44:26;;;;;;;5.45;3.70;;;;;;;;;;1040371;28;20026;-70
2023/12/03 01:44:57;;;;;;;8.38;2.25;;;;;;;;;;1040731;28;20040;-70
2023/12/03 01:45:27;;;;;;;5.43;4.15;;;;;;;;;;1040509;28;20025;-70
2023/12/03 01:45:57;;;;;;;3.28;1.17;;;;;;;;;;1040679;28;20030;-70
2023/12/03 01:46:29;;;;;;;3.65;2.00;;;;;;;;;;1039945;28;20028;-70
2023/12/03 01:46:59;;;;;;;2.30;1.55;;;;;;;;;;1040390;28;20552;-70
2023/12/03 01:47:30;;;;;;;1.70;1.60;;;;;;;;;;1040110;28;20032;-70
2023/12/03 01:48:00;;;;;;;6.13;5.28;;;;;;;;;;1040479;28;20035;-70
2023/12/03 01:48:31;;;;;;;2.17;1.98;;;;;;;;;;1040427;28;20072;-70
2023/12/03 01:49:01;;;;;;;3.03;2.75;;;;;;;;;;1040710;28;20044;-70
2023/12/03 01:49:32;;;;;;;4.40;3.95;;;;;;;;;;1039998;28;20116;-70
2023/12/03 01:50:06;;;;;;;2.00;1.90;;;;;;;;;;1040331;28;20393;-70
2023/12/03 01:50:38;;;;;;;3.88;3.42;;;;;;;;;;1035900;28;20082;-70
2023/12/03 01:51:09;;;;;;;2.17;1.63;;;;;;;;;;1037227;28;20026;-70
2023/12/03 01:51:39;;;;;;;10.10;2.05;;;;;;;;;;1040398;28;20501;-70
2023/12/03 01:52:10;;;;;;;1.52;1.42;;;;;;;;;;1040788;28;20468;-70
2023/12/03 01:52:41;;;;;;;1.05;0.98;;;;;;;;;;1040591;28;20028;-70
2023/12/03 01:53:12;;;;;;;1.23;1.20;;;;;;;;;;1041064;28;20121;-70
2023/12/03 01:53:43;;;;;;;2.38;2.20;;;;;;;;;;1041134;28;20073;-70
2023/12/03 01:54:14;;;;;;;6.22;1.08;;;;;;;;;;1040528;28;20021;-70
2023/12/03 01:54:44;;;;;;;0.22;0.22;;;;;;;;;;1040376;28;20068;-70
2023/12/03 01:55:16;;;;;;;6.93;2.67;;;;;;;;;;1040635;28;20204;-70
2023/12/03 01:55:47;;;;;;;2.47;1.80;;;;;;;;;;1040387;28;20041;-70
2023/12/03 01:56:17;;;;;;;2.13;1.35;;;;;;;;;;1040562;28;20119;-70
2023/12/03 01:56:48;;;;;;;3.72;2.25;;;;;;;;;;1040518;28;20158;-70
2023/12/03 01:57:18;;;;;;;1.77;1.67;;;;;;;;;;1040563;28;20071;-70
2023/12/03 01:57:49;;;;;;;3.17;1.63;;;;;;;;;;1040500;28;20419;-70
2023/12/03 01:58:20;;;;;;;17.85;4.45;;;;;;;;;;1040608;28;20116;-70
2023/12/03 01:58:50;;;;;;;9.75;5.10;;;;;;;;;;1040465;28;20026;-70
2023/12/03 01:59:23;;;;;;;3.42;2.55;;;;;;;;;;1040809;28;20033;-70
2023/12/03 01:59:54;;;;;;;5.00;1.55;;;;;;;;;;1040494;28;20057;-70
2023/12/03 02:00:24;;;;;;;0.45;0.45;;;;;;;;;;1040523;28;20083;-70
2023/12/03 02:00:55;;;;;;;1.60;1.50;;;;;;;;;;1040602;28;20021;-70
2023/12/03 02:01:25;;;;;;;3.33;1.95;;;;;;;;;;1040456;28;20029;-70
2023/12/03 02:01:56;;;;;;;2.70;2.22;;;;;;;;;;1040566;28;20022;-70
2023/12/03 02:02:26;;;;;;;3.80;2.97;;;;;;;;;;1040430;28;20088;-70
2023/12/03 02:02:57;;;;;;;1.42;1.33;;;;;;;;;;1040561;28;20113;-70
2023/12/03 02:03:28;;;;;;;0.32;0.32;;;;;;;;;;1040392;28;20075;-70
2023/12/03 02:03:58;;;;;;;3.20;2.40;;;;;;;;;;1040647;28;20025;-70
2023/12/03 02:04:29;;;;;;;3.20;1.83;;;;;;;;;;1040267;28;20542;-70
2023/12/03 02:04:59;;;;;;;5.35;4.07;;;;;;;;;;1040636;28;20468;-70
2023/12/03 02:05:30;;;;;;;1.55;1.50;;;;;;;;;;1040293;28;20030;-70
2023/12/03 02:06:06;;;;;;;2.63;1.40;;;;;;;;;;1040541;28;20087;-70
2023/12/03 02:06:37;;;;;;;0.88;0.85;;;;;;;;;;1040077;28;20095;-70
2023/12/03 02:07:07;;;;;;;3.47;2.30;;;;;;;;;;1040277;28;20562;-70
2023/12/03 02:07:38;;;;;;;1.58;1.48;;;;;;;;;;1040102;28;20049;-70
2023/12/03 02:08:08;;;;;;;1.83;1.73;;;;;;;;;;1040361;28;20029;-70
2023/12/03 02:08:38;;;;;;;2.25;2.10;;;;;;;;;;1040412;28;20025;-70
2023/12/03 02:09:09;;;;;;;14.00;4.32;;;;;;;;;;1040575;28;20029;-70
2023/12/03 02:09:40;;;;;;;2.45;1.80;;;;;;;;;;1040391;28;20033;-70
2023/12/03 02:10:11;;;;;;;2.00;1.88;;;;;;;;;;1040608;28;20542;-70
2023/12/03 02:10:41;;;;;;;9.88;2.28;;;;;;;;;;1040357;28;20029;-69
2023/12/03 02:11:12;;;;;;;2.80;2.53;;;;;;;;;;1040526;28;20116;-69
2023/12/03 02:11:42;;;;;;;2.75;1.98;;;;;;;;;;1040377;28;20507;-69
2023/12/03 02:12:13;;;;;;;5.65;3.35;;;;;;;;;;1040558;28;20029;-69
2023/12/03 02:12:44;;;;;;;6.40;2.00;;;;;;;;;;1040338;28;20036;-69
2023/12/03 02:13:14;;;;;;;2.15;1.52;;;;;;;;;;1040580;28;20657;-69
2023/12/03 02:13:45;;;;;;;3.00;2.70;;;;;;;;;;1040377;28;20029;-69
2023/12/03 02:14:16;;;;;;;1.58;1.33;;;;;;;;;;1040114;28;20061;-69
2023/12/03 02:14:46;;;;;;;4.10;1.90;;;;;;;;;;1039918;28;20037;-69
2023/12/03 02:15:17;;;;;;;8.13;2.53;;;;;;;;;;1040226;28;20040;-69
2023/12/03 02:15:47;;;;;;;1.00;1.00;;;;;;;;;;1040049;28;20022;-69
2023/12/03 02:16:17;;;;;;;1.10;1.10;;;;;;;;;;1040488;28;20028;-69
2023/12/03 02:16:48;;;;;;;5.50;1.38;;;;;;;;;;1040379;28;20028;-70
2023/12/03 02:17:18;;;;;;;1.17;1.17;;;;;;;;;;1040570;28;20065;-70
2023/12/03 02:17:50;;;;;;;0.35;0.35;;;;;;;;;;1040226;28;20032;-70
2023/12/03 02:18:20;;;;;;;2.10;1.55;;;;;;;;;;1039930;28;20029;-70
2023/12/03 02:18:51;;;;;;;2.88;2.67;;;;;;;;;;1040110;28;20025;-70
2023/12/03 02:19:21;;;;;;;6.03;3.13;;;;;;;;;;1040674;28;20030;-70
2023/12/03 02:19:51;;;;;;;3.17;1.77;;;;;;;;;;1040385;28;20477;-70
2023/12/03 02:20:22;;;;;;;4.30;3.63;;;;;;;;;;1040548;28;20389;-70
2023/12/03 02:20:55;;;;;;;6.93;3.03;;;;;;;;;;1040271;28;20396;-70
2023/12/03 02:21:26;;;;;;;2.15;1.80;;;;;;;;;;1040341;28;20041;-70
2023/12/03 02:21:56;;;;;;;2.38;2.00;;;;;;;;;;1040527;28;20025;-70
2023/12/03 02:22:26;;;;;;;3.40;2.10;;;;;;;;;;1040370;28;20536;-70
2023/12/03 02:22:58;;;;;;;1.17;1.13;;;;;;;;;;1040537;28;20032;-70
2023/12/03 02:23:29;;;;;;;5.68;2.67;;;;;;;;;;1040271;28;20025;-70
2023/12/03 02:24:00;;;;;;;10.55;3.38;;;;;;;;;;1040430;28;20079;-70
2023/12/03 02:24:30;;;;;;;2.85;2.65;;;;;;;;;;1040308;28;20084;-70
2023/12/03 02:25:00;;;;;;;3.03;1.90;;;;;;;;;;1040594;28;20068;-70
2023/12/03 02:25:31;;;;;;;4.40;3.33;;;;;;;;;;1040309;28;20025;-70
2023/12/03 02:26:02;;;;;;;6.50;4.40;;;;;;;;;;1040526;28;20457;-70
2023/12/03 02:26:32;;;;;;;4.32;2.55;;;;;;;;;;1040210;28;20029;-70
2023/12/03 02:27:03;;;;;;;5.05;3.72;;;;;;;;;;1040490;28;20034;-70
2023/12/03 02:27:33;;;;;;;1.40;1.30;;;;;;;;;;1040262;28;20472;-70
2023/12/03 02:28:03;;;;;;;5.95;1.83;;;;;;;;;;1040757;28;20053;-70
2023/12/03 02:28:34;;;;;;;35.47;2.60;;;;;;;;;;1039852;28;20383;-70
2023/12/03 02:29:04;;;;;;;7.45;2.70;;;;;;;;;;1040210;28;20025;-70
2023/12/03 02:29:35;;;;;;;5.35;2.92;;;;;;;;;;1040074;28;20489;-70
2023/12/03 02:30:06;;;;;;;4.45;2.85;;;;;;;;;;1040238;28;20488;-70
2023/12/03 02:30:36;;;;;;;7.15;2.03;;;;;;;;;;1040325;28;20068;-70
2023/12/03 02:31:07;;;;;;;10.85;2.00;;;;;;;;;;1040545;28;20397;-70
2023/12/03 02:31:37;;;;;;;5.57;3.03;;;;;;;;;;1040325;28;20493;-70
2023/12/03 02:32:08;;;;;;;1.70;1.58;;;;;;;;;;1040533;28;20036;-70
2023/12/03 02:32:38;;;;;;;1.33;1.13;;;;;;;;;;1039858;28;20049;-70
2023/12/03 02:33:08;;;;;;;1.48;1.38;;;;;;;;;;1040160;28;20033;-70
2023/12/03 02:33:39;;;;;;;2.53;1.10;;;;;;;;;;1040057;28;20025;-70
2023/12/03 02:34:10;;;;;;;4.18;1.83;;;;;;;;;;1040235;28;20393;-70
2023/12/03 02:34:40;;;;;;;2.90;1.90;;;;;;;;;;1040262;28;20031;-70
2023/12/03 02:35:11;;;;;;;1.52;1.42;;;;;;;;;;1040361;28;20026;-70
2023/12/03 02:35:41;;;;;;;4.00;3.58;;;;;;;;;;1040191;28;20139;-70
2023/12/03 02:36:12;;;;;;;2.58;2.38;;;;;;;;;;1040453;28;20025;-70
2023/12/03 02:36:42;;;;;;;1.40;1.30;;;;;;;;;;1040329;28;20029;-70
2023/12/03 02:37:13;;;;;;;3.45;2.15;;;;;;;;;;1040433;28;20021;-70
2023/12/03 02:37:43;;;;;;;7.47;4.25;;;;;;;;;;1040248;28;20124;-70
2023/12/03 02:38:14;;;;;;;5.20;3.25;;;;;;;;;;1040467;28;20021;-70
2023/12/03 02:38:44;;;;;;;8.20;2.28;;;;;;;;;;1040314;28;20040;-70
2023/12/03 02:39:14;;;;;;;5.28;2.60;;;;;;;;;;1040400;28;20029;-70
2023/12/03 02:39:45;;;;;;;4.63;4.22;;;;;;;;;;1040298;28;20030;-70
2023/12/03 02:40:16;;;;;;;3.65;2.75;;;;;;;;;;1040406;28;20033;-70
2023/12/03 02:40:46;;;;;;;2.75;1.60;;;;;;;;;;1040326;28;20032;-70
2023/12/03 02:41:16;;;;;;;6.35;3.80;;;;;;;;;;1040362;28;20017;-70
2023/12/03 02:41:47;;;;;;;6.18;3.75;;;;;;;;;;1040268;28;20022;-70
2023/12/03 02:42:17;;;;;;;10.73;3.55;;;;;;;;;;1040467;28;20082;-70
2023/12/03 02:42:48;;;;;;;5.95;3.72;;;;;;;;;;1040289;28;20081;-70
2023/12/03 02:43:18;;;;;;;2.55;1.55;;;;;;;;;;1040437;28;20403;-70
2023/12/03 02:43:48;;;;;;;10.05;2.58;;;;;;;;;;1040304;28;20392;-70
2023/12/03 02:44:19;;;;;;;3.13;2.25;;;;;;;;;;1040420;28;20037;-70
2023/12/03 02:44:49;;;;;;;0.90;0.90;;;;;;;;;;1040305;28;20028;-70
2023/12/03 02:45:20;;;;;;;1.80;1.70;;;;;;;;;;1040493;28;20057;-70
2023/12/03 02:45:50;;;;;;;1.08;0.55;;;;;;;;;;1040255;28;20033;-70
2023/12/03 02:46:20;;;;;;;5.20;3.03;;;;;;;;;;1040415;28;20024;-70
2023/12/03 02:46:51;;;;;;;4.13;1.05;;;;;;;;;;1039812;28;20087;-70
2023/12/03 02:47:21;;;;;;;4.80;3.10;;;;;;;;;;1040019;28;20075;-70
2023/12/03 02:47:52;;;;;;;3.70;3.40;;;;;;;;;;1039919;28;20036;-70
2023/12/03 02:48:22;;;;;;;1.65;1.55;;;;;;;;;;1040165;28;20025;-70
2023/12/03 02:48:53;;;;;;;7.78;2.35;;;;;;;;;;1040271;28;20037;-70
2023/12/03 02:49:23;;;;;;;0.63;0.63;;;;;;;;;;1040327;28;20021;-70
2023/12/03 02:49:53;;;;;;;3.15;2.08;;;;;;;;;;1040330;28;20041;-70
2023/12/03 02:50:24;;;;;;;14.40;1.90;;;;;;;;;;1040269;28;20140;-70
2023/12/03 02:50:54;;;;;;;4.38;3.33;;;;;;;;;;1040424;28;20060;-70
2023/12/03 02:51:25;;;;;;;13.77;4.80;;;;;;;;;;1040144;28;20025;-70
2023/12/03 02:51:55;;;;;;;1.48;1.38;;;;;;;;;;1040362;28;20475;-70
2023/12/03 02:52:26;;;;;;;5.28;3.03;;;;;;;;;;1040274;28;20033;-70
2023/12/03 02:52:56;;;;;;;20.92;2.83;;;;;;;;;;1040390;28;20029;-70
2023/12/03 02:53:27;;;;;;;4.07;3.05;;;;;;;;;;1039746;28;20118;-70
2023/12/03 02:53:57;;;;;;;1.67;1.50;;;;;;;;;;1040207;28;20029;-70
2023/12/03 02:54:27;;;;;;;1.67;1.13;;;;;;;;;;1039939;28;20097;-70
2023/12/03 02:54:58;;;;;;;1.27;0.85;;;;;;;;;;1035900;28;20398;-70
2023/12/03 02:55:28;;;;;;;11.32;3.03;;;;;;;;;;1039848;28;20412;-70
2023/12/03 02:55:59;;;;;;;5.18;4.78;;;;;;;;;;1040106;28;20029;-70
2023/12/03 02:56:29;;;;;;;5.78;2.97;;;;;;;;;;1039769;28;20370;-70
2023/12/03 02:57:00;;;;;;;4.97;1.10;;;;;;;;;;1040071;28;20619;-70
2023/12/03 02:57:30;;;;;;;15.13;4.03;;;;;;;;;;1039822;28;20119;-70
2023/12/03 02:58:01;;;;;;;6.10;1.92;;;;;;;;;;1040085;28;20029;-70
2023/12/03 02:58:31;;;;;;;5.63;3.05;;;;;;;;;;1039890;28;20055;-70
2023/12/03 02:59:02;;;;;;;5.05;2.92;;;;;;;;;;1040384;28;20063;-70
2023/12/03 02:59:32;;;;;;;5.10;2.28;;;;;;;;;;1039859;28;20456;-70
2023/12/03 03:00:04;;;;;;;2.17;2.03;;;;;;;;;;1040052;28;20024;-70
2023/12/03 03:00:35;;;;;;;3.97;3.63;;;;;;;;;;1039935;28;20037;-70
2023/12/03 03:01:05;;;;;;;2.60;1.83;;;;;;;;;;1040045;28;20029;-70
2023/12/03 03:01:36;;;;;;;2.38;2.10;;;;;;;;;;1039749;28;20036;-70
2023/12/03 03:02:06;;;;;;;3.45;2.90;;;;;;;;;;1040050;28;20497;-70
2023/12/03 03:02:38;;;;;;;4.50;3.70;;;;;;;;;;1039946;28;20025;-70
2023/12/03 03:03:08;;;;;;;1.65;1.55;;;;;;;;;;1040128;28;20048;-70
2023/12/03 03:03:38;;;;;;;4.35;2.60;;;;;;;;;;1040225;28;20492;-70
2023/12/03 03:04:09;;;;;;;3.92;3.35;;;;;;;;;;1040275;28;20056;-70
2023/12/03 03:04:39;;;;;;;4.97;3.60;;;;;;;;;;1040159;28;20099;-70
2023/12/03 03:05:10;;;;;;;9.68;4.80;;;;;;;;;;1039942;28;20511;-70
2023/12/03 03:05:40;;;;;;;3.45;3.10;;;;;;;;;;1039792;28;20489;-70
2023/12/03 03:06:11;;;;;;;10.30;4.75;;;;;;;;;;1040047;28;20401;-70
2023/12/03 03:06:41;;;;;;;6.60;4.38;;;;;;;;;;1039818;28;20385;-70
2023/12/03 03:07:11;;;;;;;11.52;3.58;;;;;;;;;;1040361;28;20468;-70
2023/12/03 03:07:42;;;;;;;16.23;4.82;;;;;;;;;;1040109;28;20484;-70
2023/12/03 03:08:12;;;;;;;7.63;6.47;;;;;;;;;;1040441;28;20476;-70